SANT HILARI SACALM





Hora UTC 07:05
Temperatura 3.7 ºC
Sòl 15 cm 1.3 ºC
Humitat 83.6 %
Pressió 1014.7 hPa
Pluja 0.0 mm
Velocitat vent 3.5 km/h
Direcció vent N
Radiació solar 4.9 W/m²

Dades diàries 2022-12-01



Hora UTC (hivern +1h; estiu +2h)
Temperatura (ºC) Humitat (%) Pressió (hPa) Velocitat vent (km/h) Precipitació (mm) Radiació solar (W/m²)
Hora UTC Aire Sòl 15 cm Humitat Pressió Vel. Dir. Vel. Max Dir. Intent. màx 5 min. Rad. Sol.
00:05 5.6 3.8 90.5 1014.9 2.2 NW 2.2 WNW 0.0 0.1
00:10 5.5 3.5 90.5 1014.9 4.0 NNW 8.8 NNW 0.0 0.1
00:15 5.4 3.3 90.7 1014.9 3.5 NNW 8.8 NW 0.0 0.1
00:20 5.5 3.3 90.7 1014.9 4.4 NW 8.8 NW 0.0 0.1
00:25 5.4 3.3 90.1 1014.9 2.7 WSW 8.8 W 0.0 0.1
00:30 5.0 3.2 90.1 1014.9 3.2 WSW 8.8 WSW 0.0 0.1
00:35 4.9 3.0 91.1 1014.8 2.1 W 6.1 WSW 0.0 0.1
00:40 4.8 3.0 91.7 1014.8 3.2 W 6.1 WNW 0.0 0.1
00:45 4.7 2.7 92.1 1014.8 3.4 WSW 8.8 SSW 0.0 0.1
00:50 4.7 2.4 92.6 1014.8 3.4 WNW 8.8 W 0.0 0.1
00:55 4.9 2.2 93.1 1014.7 5.1 WNW 8.8 WNW 0.0 0.1
01:00 4.9 2.1 92.9 1014.7 4.3 W 8.8 WNW 0.0 0.1
01:05 4.8 1.7 92.7 1014.7 6.3 WNW 11.5 WNW 0.0 0.1
01:10 4.8 1.5 93.0 1014.7 4.0 WNW 11.5 WNW 0.0 0.1
01:15 4.8 1.4 92.9 1014.6 3.7 W 8.8 WNW 0.0 0.1
01:20 4.5 1.1 92.8 1014.6 5.5 W 11.5 W 0.0 0.1
01:25 4.4 1.2 93.3 1014.6 5.6 W 11.5 NW 0.0 0.1
01:30 4.2 1.1 93.4 1014.6 4.1 W 8.8 SW 0.0 0.1
01:35 4.1 0.8 93.6 1014.6 2.5 W 6.1 WNW 0.0 0.1
01:40 4.1 0.6 94.3 1014.6 4.8 WNW 8.8 NW 0.0 0.1
01:45 4.5 1.0 94.8 1014.6 4.7 WNW 8.8 WSW 0.0 0.2
01:50 4.5 1.2 94.6 1014.7 4.9 WNW 11.5 W 0.0 0.1
01:55 4.6 1.4 94.6 1014.7 4.4 WNW 11.5 WNW 0.0 0.1
02:00 4.6 1.5 94.4 1014.7 4.6 WNW 8.8 W 0.0 0.1
02:05 4.5 1.5 94.2 1014.6 5.4 NW 11.5 NW 0.0 0.1
02:10 4.6 1.7 93.9 1014.6 5.4 NW 14.2 NW 0.0 0.1
02:15 4.6 1.8 93.7 1014.6 2.2 WNW 8.8 WNW 0.0 0.1
02:20 4.6 1.6 93.3 1014.6 1.4 NW 6.1 NNW 0.0 0.1
02:25 4.5 1.2 93.0 1014.6 2.2 NW 6.1 WNW 0.0 0.1
02:30 4.4 0.7 92.9 1014.5 3.0 WNW 8.8 WNW 0.0 0.1
02:35 4.3 0.6 92.8 1014.5 3.4 NW 8.8 NW 0.0 0.1
02:40 4.3 0.6 92.9 1014.5 3.3 NNW 6.1 N 0.0 0.1
02:45 4.3 0.4 92.5 1014.5 2.2 NW 8.8 NW 0.0 0.1
02:50 4.0 0.2 92.1 1014.5 0.1 NNW 3.4 NNW 0.0 0.1
02:55 3.8 0.1 92.3 1014.4 2.1 SSW 6.1 S 0.0 0.1
03:00 3.7 0.4 92.6 1014.4 4.9 SW 8.8 SW 0.0 0.1
03:05 3.4 0.4 92.8 1014.4 4.4 W 8.8 W 0.0 0.1
03:10 3.3 0.2 93.5 1014.4 3.8 WNW 8.8 WNW 0.0 0.1
03:15 3.3 0.0 94.1 1014.4 4.4 WNW 8.8 NW 0.0 0.1
03:20 3.5 0.0 94.7 1014.4 5.3 NW 8.8 NW 0.0 0.1
03:25 3.6 0.4 94.7 1014.4 6.0 NNW 11.5 NW 0.0 0.1
03:30 3.6 0.7 94.8 1014.3 7.0 NNW 11.5 NNW 0.0 0.1
03:35 3.9 0.8 95.2 1014.3 5.6 NNW 8.8 NNW 0.0 0.1
03:40 3.9 0.7 95.0 1014.3 4.7 NNW 8.8 NNW 0.0 0.1
03:45 3.9 0.5 94.8 1014.3 1.7 NW 6.1 NNW 0.0 0.1
03:50 3.7 0.1 94.3 1014.3 1.8 NW 6.1 NNW 0.0 0.1
03:55 3.1 0.0 93.7 1014.3 1.5 SSW 6.1 S 0.0 0.1
04:00 3.0 -0.3 94.4 1014.3 0.3 S 3.4 NW 0.0 0.1
04:05 3.1 -0.4 94.9 1014.3 0.4 W 6.1 WNW 0.0 0.1
04:10 3.1 -0.6 94.9 1014.3 0.0 NNE 0.0 W 0.0 0.1
04:15 2.9 -0.6 94.8 1014.3 0.7 WNW 6.1 WNW 0.0 0.1
04:20 2.9 -0.4 95.1 1014.3 5.2 NNW 11.5 NNW 0.0 0.1
04:25 3.3 0.2 95.4 1014.3 7.5 NNW 11.5 NNW 0.0 0.1
04:30 3.5 0.6 95.3 1014.3 7.0 NNW 11.5 NNW 0.0 0.1
04:35 3.9 0.9 95.2 1014.3 6.6 NNW 11.5 NNW 0.0 0.1
04:40 4.0 1.0 94.5 1014.2 1.7 NNW 8.8 NW 0.0 0.1
04:45 3.7 0.5 93.2 1014.2 0.8 NNW 6.1 NW 0.0 0.1
04:50 3.3 0.2 92.7 1014.2 0.3 NW 6.1 NW 0.0 0.1
04:55 3.4 -0.2 93.4 1014.2 2.0 N 8.8 NNW 0.0 0.1
05:00 3.5 -0.2 93.4 1014.2 2.1 N 6.1 N 0.0 0.1
05:05 3.6 -0.2 93.4 1014.2 3.7 NNW 8.8 NNW 0.0 0.1
05:10 3.6 0.0 93.1 1014.2 0.8 NNW 6.1 NNW 0.0 0.1
05:15 3.4 -0.3 92.7 1014.2 0.1 NNW 3.4 NNW 0.0 0.1
05:20 3.2 -0.6 92.8 1014.2 1.1 WNW 6.1 NNW 0.0 0.1
05:25 3.1 -0.6 93.1 1014.2 1.6 NW 6.1 WNW 0.0 0.1
05:30 3.1 -0.5 93.6 1014.2 2.1 WNW 6.1 W 0.0 0.1
05:35 3.2 -0.2 93.9 1014.2 0.8 WNW 6.1 NW 0.0 0.1
05:40 3.2 0.2 93.9 1014.3 0.1 WNW 6.1 WNW 0.0 0.1
05:45 3.2 0.6 94.0 1014.3 0.4 NNW 6.1 NNW 0.0 0.1
05:50 3.3 0.9 94.1 1014.3 0.6 NNW 8.8 NNW 0.0 0.1
05:55 3.4 1.3 94.2 1014.4 1.8 NNW 6.1 NNW 0.0 0.1
06:00 3.5 1.5 93.9 1014.4 3.7 N 8.8 NNE 0.0 0.1
06:05 3.5 1.6 93.1 1014.4 0.7 NNW 6.1 NNW 0.0 0.1
06:10 3.6 1.8 92.3 1014.5 3.1 NNW 8.8 NNW 0.0 0.1
06:15 3.8 1.9 91.0 1014.5 5.3 NNW 11.5 NNW 0.0 0.1
06:20 4.0 2.1 89.5 1014.5 5.4 NNW 11.5 NNW 0.0 0.1
06:25 4.0 2.1 88.5 1014.6 0.6 NNW 6.1 NNW 0.0 0.1
06:30 4.0 2.2 87.8 1014.6 2.8 NNW 6.1 NNW 0.0 0.1
06:35 4.1 2.2 86.9 1014.6 5.0 NNW 8.8 NNW 0.0 0.1
06:40 4.2 2.3 85.2 1014.6 2.0 N 6.1 NNW 0.0 0.1
06:45 4.2 2.2 84.4 1014.6 3.4 N 8.8 NNW 0.0 0.3
06:50 4.0 2.1 84.1 1014.6 3.2 N 8.8 NNW 0.0 0.6
06:55 3.9 1.8 83.9 1014.7 1.7 N 8.8 NNW 0.0 1.3
07:00 3.9 1.6 83.6 1014.7 3.0 N 6.1 NNW 0.0 2.4
07:05 3.7 1.3 83.6 1014.7 3.5 N 8.8 N 0.0 4.9
Màxima 5.6 3.8 95.4 1014.9 7.5 NNW 14.2 NW 0.0 4.9
Mínima 2.7 -0.6 83.6 1014.2
Total 0.0